sensor_id;sensor_type;location;lat;lon;timestamp;temperature;humidity
11639;DHT22;5875;35.940;126.892;2023-02-28T00:01:04;15.50;10.60
11639;DHT22;5875;35.940;126.892;2023-02-28T00:03:31;16.20;6.20
11639;DHT22;5875;35.940;126.892;2023-02-28T00:06:03;16.80;1.00
11639;DHT22;5875;35.940;126.892;2023-02-28T00:08:30;17.50;1.00
11639;DHT22;5875;35.940;126.892;2023-02-28T00:11:11;18.10;1.00
11639;DHT22;5875;35.940;126.892;2023-02-28T00:13:41;18.60;1.00
11639;DHT22;5875;35.940;126.892;2023-02-28T00:16:11;19.10;1.00
11639;DHT22;5875;35.940;126.892;2023-02-28T00:18:40;19.70;1.00
11639;DHT22;5875;35.940;126.892;2023-02-28T00:21:08;19.80;1.00
11639;DHT22;5875;35.940;126.892;2023-02-28T00:23:40;20.20;1.00
11639;DHT22;5875;35.940;126.892;2023-02-28T00:26:07;20.50;1.00
11639;DHT22;5875;35.940;126.892;2023-02-28T00:28:35;21.00;1.00
11639;DHT22;5875;35.940;126.892;2023-02-28T00:31:02;21.50;1.00
11639;DHT22;5875;35.940;126.892;2023-02-28T00:33:29;22.00;1.00
11639;DHT22;5875;35.940;126.892;2023-02-28T00:36:08;22.40;1.00
11639;DHT22;5875;35.940;126.892;2023-02-28T00:38:36;22.90;1.00
11639;DHT22;5875;35.940;126.892;2023-02-28T00:41:04;22.80;1.00
11639;DHT22;5875;35.940;126.892;2023-02-28T00:43:33;22.70;1.00
11639;DHT22;5875;35.940;126.892;2023-02-28T00:46:01;22.10;1.00
11639;DHT22;5875;35.940;126.892;2023-02-28T00:48:29;23.00;1.00
11639;DHT22;5875;35.940;126.892;2023-02-28T00:50:56;23.30;1.00
11639;DHT22;5875;35.940;126.892;2023-02-28T00:53:23;22.30;1.00
11639;DHT22;5875;35.940;126.892;2023-02-28T00:55:51;22.70;1.00
11639;DHT22;5875;35.940;126.892;2023-02-28T00:58:18;23.30;1.00
11639;DHT22;5875;35.940;126.892;2023-02-28T01:00:45;23.50;1.00
11639;DHT22;5875;35.940;126.892;2023-02-28T01:03:20;23.70;1.00
11639;DHT22;5875;35.940;126.892;2023-02-28T01:05:47;23.40;1.00
11639;DHT22;5875;35.940;126.892;2023-02-28T01:08:15;23.20;1.00
11639;DHT22;5875;35.940;126.892;2023-02-28T01:10:42;23.40;1.00
11639;DHT22;5875;35.940;126.892;2023-02-28T01:13:10;22.40;1.00
11639;DHT22;5875;35.940;126.892;2023-02-28T01:15:40;21.50;1.00
11639;DHT22;5875;35.940;126.892;2023-02-28T01:18:08;22.10;1.00
11639;DHT22;5875;35.940;126.892;2023-02-28T01:20:37;23.40;1.00
11639;DHT22;5875;35.940;126.892;2023-02-28T01:23:04;23.30;1.00
11639;DHT22;5875;35.940;126.892;2023-02-28T01:25:34;23.40;1.00
11639;DHT22;5875;35.940;126.892;2023-02-28T01:28:02;22.40;1.00
11639;DHT22;5875;35.940;126.892;2023-02-28T01:30:29;22.10;1.00
11639;DHT22;5875;35.940;126.892;2023-02-28T01:32:57;23.00;1.00
11639;DHT22;5875;35.940;126.892;2023-02-28T01:35:24;21.60;1.00
11639;DHT22;5875;35.940;126.892;2023-02-28T01:37:51;22.10;1.00
11639;DHT22;5875;35.940;126.892;2023-02-28T01:40:18;20.80;1.00
11639;DHT22;5875;35.940;126.892;2023-02-28T01:42:45;20.30;1.00
11639;DHT22;5875;35.940;126.892;2023-02-28T01:45:28;20.00;1.00
11639;DHT22;5875;35.940;126.892;2023-02-28T01:48:00;21.50;1.00
11639;DHT22;5875;35.940;126.892;2023-02-28T01:50:31;22.70;1.00
11639;DHT22;5875;35.940;126.892;2023-02-28T01:53:05;21.00;1.00
11639;DHT22;5875;35.940;126.892;2023-02-28T01:55:33;22.20;1.00
11639;DHT22;5875;35.940;126.892;2023-02-28T01:58:04;22.20;1.00
11639;DHT22;5875;35.940;126.892;2023-02-28T02:00:33;22.70;1.00
11639;DHT22;5875;35.940;126.892;2023-02-28T02:03:07;23.80;1.00
11639;DHT22;5875;35.940;126.892;2023-02-28T02:05:38;24.90;1.00
11639;DHT22;5875;35.940;126.892;2023-02-28T02:08:11;24.10;1.00
11639;DHT22;5875;35.940;126.892;2023-02-28T02:10:51;24.00;1.00
11639;DHT22;5875;35.940;126.892;2023-02-28T02:24:57;24.60;1.00
11639;DHT22;5875;35.940;126.892;2023-02-28T02:38:22;24.60;1.00
11639;DHT22;5875;35.940;126.892;2023-02-28T02:43:29;25.50;1.00
11639;DHT22;5875;35.940;126.892;2023-02-28T02:46:02;25.60;1.00
11639;DHT22;5875;35.940;126.892;2023-02-28T02:48:34;26.00;1.00
11639;DHT22;5875;35.940;126.892;2023-02-28T02:51:07;26.00;1.00
11639;DHT22;5875;35.940;126.892;2023-02-28T02:54:08;25.80;1.00
11639;DHT22;5875;35.940;126.892;2023-02-28T02:56:39;26.00;1.00
11639;DHT22;5875;35.940;126.892;2023-02-28T03:01:36;25.90;1.00
11639;DHT22;5875;35.940;126.892;2023-02-28T03:04:19;25.20;1.00
11639;DHT22;5875;35.940;126.892;2023-02-28T03:06:47;25.40;1.00
11639;DHT22;5875;35.940;126.892;2023-02-28T03:09:14;25.10;1.00
11639;DHT22;5875;35.940;126.892;2023-02-28T03:11:42;25.50;1.00
11639;DHT22;5875;35.940;126.892;2023-02-28T03:14:34;25.40;1.00
11639;DHT22;5875;35.940;126.892;2023-02-28T03:19:47;25.60;1.00
11639;DHT22;5875;35.940;126.892;2023-02-28T03:30:47;25.20;1.00
11639;DHT22;5875;35.940;126.892;2023-02-28T03:35:57;24.90;1.00
11639;DHT22;5875;35.940;126.892;2023-02-28T03:38:35;25.10;1.00
11639;DHT22;5875;35.940;126.892;2023-02-28T03:41:19;24.70;1.00
11639;DHT22;5875;35.940;126.892;2023-02-28T03:44:06;23.90;1.00
11639;DHT22;5875;35.940;126.892;2023-02-28T03:49:20;23.90;1.00
11639;DHT22;5875;35.940;126.892;2023-02-28T03:51:49;23.50;1.00
11639;DHT22;5875;35.940;126.892;2023-02-28T03:54:21;22.90;1.00
11639;DHT22;5875;35.940;126.892;2023-02-28T04:09:33;22.70;1.00
11639;DHT22;5875;35.940;126.892;2023-02-28T04:19:21;22.50;1.00
11639;DHT22;5875;35.940;126.892;2023-02-28T04:21:50;23.10;1.00
11639;DHT22;5875;35.940;126.892;2023-02-28T04:24:24;23.00;1.00
11639;DHT22;5875;35.940;126.892;2023-02-28T04:26:54;22.90;1.00
11639;DHT22;5875;35.940;126.892;2023-02-28T04:29:31;23.10;1.00
11639;DHT22;5875;35.940;126.892;2023-02-28T04:32:00;23.20;1.00
11639;DHT22;5875;35.940;126.892;2023-02-28T04:34:30;23.20;1.00
11639;DHT22;5875;35.940;126.892;2023-02-28T04:36:57;22.90;1.00
11639;DHT22;5875;35.940;126.892;2023-02-28T04:39:26;22.90;1.00
11639;DHT22;5875;35.940;126.892;2023-02-28T04:41:53;22.40;1.00
11639;DHT22;5875;35.940;126.892;2023-02-28T04:44:21;22.80;1.00
11639;DHT22;5875;35.940;126.892;2023-02-28T04:46:49;23.00;1.00
11639;DHT22;5875;35.940;126.892;2023-02-28T04:49:16;23.20;1.00
11639;DHT22;5875;35.940;126.892;2023-02-28T04:51:44;23.20;1.00
11639;DHT22;5875;35.940;126.892;2023-02-28T04:54:11;23.30;1.00
11639;DHT22;5875;35.940;126.892;2023-02-28T04:56:39;23.30;1.00
11639;DHT22;5875;35.940;126.892;2023-02-28T04:59:06;23.40;1.00
11639;DHT22;5875;35.940;126.892;2023-02-28T05:01:34;23.20;1.00
11639;DHT22;5875;35.940;126.892;2023-02-28T05:04:04;23.10;1.00
11639;DHT22;5875;35.940;126.892;2023-02-28T05:06:33;23.10;1.00
11639;DHT22;5875;35.940;126.892;2023-02-28T05:09:00;23.20;1.00
11639;DHT22;5875;35.940;126.892;2023-02-28T05:11:33;23.10;1.00
11639;DHT22;5875;35.940;126.892;2023-02-28T05:14:02;23.10;1.00
11639;DHT22;5875;35.940;126.892;2023-02-28T05:16:29;23.00;1.00
11639;DHT22;5875;35.940;126.892;2023-02-28T05:18:57;22.80;1.00
11639;DHT22;5875;35.940;126.892;2023-02-28T05:21:30;22.70;1.00
11639;DHT22;5875;35.940;126.892;2023-02-28T05:24:00;22.70;1.00
11639;DHT22;5875;35.940;126.892;2023-02-28T05:26:28;22.70;1.00
11639;DHT22;5875;35.940;126.892;2023-02-28T05:28:55;22.70;1.00
11639;DHT22;5875;35.940;126.892;2023-02-28T05:31:23;22.70;1.00
11639;DHT22;5875;35.940;126.892;2023-02-28T05:33:50;22.70;1.00
11639;DHT22;5875;35.940;126.892;2023-02-28T05:36:18;22.60;1.00
11639;DHT22;5875;35.940;126.892;2023-02-28T05:38:47;22.60;1.00
11639;DHT22;5875;35.940;126.892;2023-02-28T05:41:15;22.40;1.00
11639;DHT22;5875;35.940;126.892;2023-02-28T08:43:27;22.30;1.00
11639;DHT22;5875;35.940;126.892;2023-02-28T08:45:56;17.70;1.00
11639;DHT22;5875;35.940;126.892;2023-02-28T08:48:30;17.50;1.00
11639;DHT22;5875;35.940;126.892;2023-02-28T08:51:02;17.40;1.00
11639;DHT22;5875;35.940;126.892;2023-02-28T08:53:30;17.30;1.00
11639;DHT22;5875;35.940;126.892;2023-02-28T08:56:02;17.20;1.00
11639;DHT22;5875;35.940;126.892;2023-02-28T08:58:30;17.00;1.00
11639;DHT22;5875;35.940;126.892;2023-02-28T09:00:57;16.90;1.00
11639;DHT22;5875;35.940;126.892;2023-02-28T09:03:24;16.70;1.00
11639;DHT22;5875;35.940;126.892;2023-02-28T09:05:57;16.60;1.00
11639;DHT22;5875;35.940;126.892;2023-02-28T09:08:27;16.50;1.00
11639;DHT22;5875;35.940;126.892;2023-02-28T09:10:54;16.30;1.00
11639;DHT22;5875;35.940;126.892;2023-02-28T09:13:24;16.20;1.00
11639;DHT22;5875;35.940;126.892;2023-02-28T09:15:51;16.10;1.00
11639;DHT22;5875;35.940;126.892;2023-02-28T09:18:18;16.00;1.00
11639;DHT22;5875;35.940;126.892;2023-02-28T09:20:45;15.80;1.00
11639;DHT22;5875;35.940;126.892;2023-02-28T09:23:13;15.70;1.00
11639;DHT22;5875;35.940;126.892;2023-02-28T09:25:48;15.60;1.00
11639;DHT22;5875;35.940;126.892;2023-02-28T09:28:16;15.50;1.00
11639;DHT22;5875;35.940;126.892;2023-02-28T09:30:53;15.40;1.00
11639;DHT22;5875;35.940;126.892;2023-02-28T09:33:21;15.30;1.00
11639;DHT22;5875;35.940;126.892;2023-02-28T09:35:58;15.10;1.00
11639;DHT22;5875;35.940;126.892;2023-02-28T09:38:27;15.00;1.00
11639;DHT22;5875;35.940;126.892;2023-02-28T09:41:00;14.90;1.00
11639;DHT22;5875;35.940;126.892;2023-02-28T09:43:34;14.80;1.00
11639;DHT22;5875;35.940;126.892;2023-02-28T09:46:28;14.70;1.00
11639;DHT22;5875;35.940;126.892;2023-02-28T09:49:00;14.60;1.00
11639;DHT22;5875;35.940;126.892;2023-02-28T09:51:51;14.50;1.00
11639;DHT22;5875;35.940;126.892;2023-02-28T09:54:22;14.40;1.00
11639;DHT22;5875;35.940;126.892;2023-02-28T09:57:01;14.30;1.00
11639;DHT22;5875;35.940;126.892;2023-02-28T10:04:59;13.90;1.00
11639;DHT22;5875;35.940;126.892;2023-02-28T10:11:01;13.70;1.80
11639;DHT22;5875;35.940;126.892;2023-02-28T10:13:46;13.60;2.50
11639;DHT22;5875;35.940;126.892;2023-02-28T10:19:16;13.40;4.30
11639;DHT22;5875;35.940;126.892;2023-02-28T10:24:51;13.20;5.80
11639;DHT22;5875;35.940;126.892;2023-02-28T10:27:23;13.10;6.90
11639;DHT22;5875;35.940;126.892;2023-02-28T10:29:54;13.00;8.60
11639;DHT22;5875;35.940;126.892;2023-02-28T10:32:35;12.90;10.00
11639;DHT22;5875;35.940;126.892;2023-02-28T10:35:18;12.80;11.60
11639;DHT22;5875;35.940;126.892;2023-02-28T10:37:58;12.70;12.20
11639;DHT22;5875;35.940;126.892;2023-02-28T10:40:33;12.60;12.80
11639;DHT22;5875;35.940;126.892;2023-02-28T10:43:04;12.50;13.30
11639;DHT22;5875;35.940;126.892;2023-02-28T10:45:34;12.40;13.80
11639;DHT22;5875;35.940;126.892;2023-02-28T10:53:30;12.20;16.50
11639;DHT22;5875;35.940;126.892;2023-02-28T11:01:37;12.00;19.30
11639;DHT22;5875;35.940;126.892;2023-02-28T11:04:34;12.00;20.70
11639;DHT22;5875;35.940;126.892;2023-02-28T11:07:19;11.90;22.10
11639;DHT22;5875;35.940;126.892;2023-02-28T11:09:49;11.80;22.60
11639;DHT22;5875;35.940;126.892;2023-02-28T11:12:26;11.70;22.50
11639;DHT22;5875;35.940;126.892;2023-02-28T11:15:26;11.60;21.70
11639;DHT22;5875;35.940;126.892;2023-02-28T11:18:19;11.50;22.40
11639;DHT22;5875;35.940;126.892;2023-02-28T11:20:50;11.30;27.40
11639;DHT22;5875;35.940;126.892;2023-02-28T11:23:20;11.10;29.90
11639;DHT22;5875;35.940;126.892;2023-02-28T11:25:56;11.10;30.00
11639;DHT22;5875;35.940;126.892;2023-02-28T11:28:36;11.00;31.50
11639;DHT22;5875;35.940;126.892;2023-02-28T11:33:48;11.00;34.40
11639;DHT22;5875;35.940;126.892;2023-02-28T11:36:31;10.90;34.30
11639;DHT22;5875;35.940;126.892;2023-02-28T11:39:11;10.90;35.80
11639;DHT22;5875;35.940;126.892;2023-02-28T11:42:13;10.80;42.80
11639;DHT22;5875;35.940;126.892;2023-02-28T11:47:33;10.70;39.20
11639;DHT22;5875;35.940;126.892;2023-02-28T11:55:38;10.60;37.10
11639;DHT22;5875;35.940;126.892;2023-02-28T12:01:38;10.60;36.20
11639;DHT22;5875;35.940;126.892;2023-02-28T12:18:33;10.60;43.40
11639;DHT22;5875;35.940;126.892;2023-02-28T12:26:51;10.50;39.60
11639;DHT22;5875;35.940;126.892;2023-02-28T12:29:28;10.50;40.60
11639;DHT22;5875;35.940;126.892;2023-02-28T12:32:35;10.50;40.40
11639;DHT22;5875;35.940;126.892;2023-02-28T12:35:12;10.50;42.00
11639;DHT22;5875;35.940;126.892;2023-02-28T12:41:02;10.50;38.80
11639;DHT22;5875;35.940;126.892;2023-02-28T12:43:25;10.40;38.60
11639;DHT22;5875;35.940;126.892;2023-02-28T12:46:00;10.40;40.70
11639;DHT22;5875;35.940;126.892;2023-02-28T12:48:40;10.40;40.40
11639;DHT22;5875;35.940;126.892;2023-02-28T12:51:09;10.40;40.80
11639;DHT22;5875;35.940;126.892;2023-02-28T12:53:54;10.40;41.00
11639;DHT22;5875;35.940;126.892;2023-02-28T12:56:43;10.40;38.90
11639;DHT22;5875;35.940;126.892;2023-02-28T13:05:28;10.20;61.20
11639;DHT22;5875;35.940;126.892;2023-02-28T13:11:02;10.10;53.40
11639;DHT22;5875;35.940;126.892;2023-02-28T13:13:31;10.00;53.80
11639;DHT22;5875;35.940;126.892;2023-02-28T13:16:11;10.00;53.30
11639;DHT22;5875;35.940;126.892;2023-02-28T13:18:39;10.00;56.80
11639;DHT22;5875;35.940;126.892;2023-02-28T13:21:10;10.00;58.80
11639;DHT22;5875;35.940;126.892;2023-02-28T13:29:28;9.90;66.00
11639;DHT22;5875;35.940;126.892;2023-02-28T13:34:41;9.90;58.90
11639;DHT22;5875;35.940;126.892;2023-02-28T13:40:06;9.90;59.40
11639;DHT22;5875;35.940;126.892;2023-02-28T13:47:42;9.90;64.50
11639;DHT22;5875;35.940;126.892;2023-02-28T14:06:51;9.90;58.40
11639;DHT22;5875;35.940;126.892;2023-02-28T14:09:40;9.90;63.70
11639;DHT22;5875;35.940;126.892;2023-02-28T14:20:44;9.60;99.90
11639;DHT22;5875;35.940;126.892;2023-02-28T14:28:53;9.60;91.30
11639;DHT22;5875;35.940;126.892;2023-02-28T14:31:32;9.60;91.40
11639;DHT22;5875;35.940;126.892;2023-02-28T14:36:46;9.60;94.90
11639;DHT22;5875;35.940;126.892;2023-02-28T14:39:20;9.60;91.20
11639;DHT22;5875;35.940;126.892;2023-02-28T14:41:50;9.60;90.20
11639;DHT22;5875;35.940;126.892;2023-02-28T14:44:26;9.60;94.70
11639;DHT22;5875;35.940;126.892;2023-02-28T14:47:01;9.60;81.20
11639;DHT22;5875;35.940;126.892;2023-02-28T14:49:44;9.60;68.80
11639;DHT22;5875;35.940;126.892;2023-02-28T14:52:17;9.60;64.50
11639;DHT22;5875;35.940;126.892;2023-02-28T14:54:46;9.60;94.80
11639;DHT22;5875;35.940;126.892;2023-02-28T14:57:24;9.50;99.90
11639;DHT22;5875;35.940;126.892;2023-02-28T15:00:14;9.50;86.30
11639;DHT22;5875;35.940;126.892;2023-02-28T15:02:43;9.50;72.40
11639;DHT22;5875;35.940;126.892;2023-02-28T15:05:17;9.50;67.90
11639;DHT22;5875;35.940;126.892;2023-02-28T15:07:48;9.50;91.90
11639;DHT22;5875;35.940;126.892;2023-02-28T15:10:20;9.40;99.90
11639;DHT22;5875;35.940;126.892;2023-02-28T15:18:02;9.10;99.90
11639;DHT22;5875;35.940;126.892;2023-02-28T15:20:32;9.10;99.90
11639;DHT22;5875;35.940;126.892;2023-02-28T15:23:00;9.10;99.90
11639;DHT22;5875;35.940;126.892;2023-02-28T15:25:27;9.10;99.90
11639;DHT22;5875;35.940;126.892;2023-02-28T15:27:56;9.10;99.90
11639;DHT22;5875;35.940;126.892;2023-02-28T15:30:28;9.00;99.90
11639;DHT22;5875;35.940;126.892;2023-02-28T15:33:25;8.90;99.90
11639;DHT22;5875;35.940;126.892;2023-02-28T15:36:14;8.90;99.90
11639;DHT22;5875;35.940;126.892;2023-02-28T15:38:43;8.80;99.90
11639;DHT22;5875;35.940;126.892;2023-02-28T15:41:28;8.90;99.90
11639;DHT22;5875;35.940;126.892;2023-02-28T15:44:15;8.90;99.90
11639;DHT22;5875;35.940;126.892;2023-02-28T15:47:21;8.90;99.90
11639;DHT22;5875;35.940;126.892;2023-02-28T15:49:54;9.00;99.90
11639;DHT22;5875;35.940;126.892;2023-02-28T15:52:37;9.00;99.90
11639;DHT22;5875;35.940;126.892;2023-02-28T15:57:47;9.10;99.90
11639;DHT22;5875;35.940;126.892;2023-02-28T16:00:20;9.10;99.90
11639;DHT22;5875;35.940;126.892;2023-02-28T16:02:48;9.20;96.80
11639;DHT22;5875;35.940;126.892;2023-02-28T16:05:22;9.20;94.20
11639;DHT22;5875;35.940;126.892;2023-02-28T16:07:56;9.20;90.70
11639;DHT22;5875;35.940;126.892;2023-02-28T16:10:25;9.20;90.90
11639;DHT22;5875;35.940;126.892;2023-02-28T16:12:54;9.20;87.20
11639;DHT22;5875;35.940;126.892;2023-02-28T16:15:27;9.20;83.00
11639;DHT22;5875;35.940;126.892;2023-02-28T16:17:56;9.20;83.70
11639;DHT22;5875;35.940;126.892;2023-02-28T16:20:26;9.20;90.50
11639;DHT22;5875;35.940;126.892;2023-02-28T16:22:53;9.20;87.90
11639;DHT22;5875;35.940;126.892;2023-02-28T16:25:25;9.20;87.30
11639;DHT22;5875;35.940;126.892;2023-02-28T16:27:54;9.20;82.00
11639;DHT22;5875;35.940;126.892;2023-02-28T16:30:25;9.20;80.30
11639;DHT22;5875;35.940;126.892;2023-02-28T16:32:54;9.20;78.00
11639;DHT22;5875;35.940;126.892;2023-02-28T16:35:22;9.20;79.60
11639;DHT22;5875;35.940;126.892;2023-02-28T16:37:53;9.20;80.80
11639;DHT22;5875;35.940;126.892;2023-02-28T16:40:23;9.20;79.40
11639;DHT22;5875;35.940;126.892;2023-02-28T16:42:54;9.20;77.20
11639;DHT22;5875;35.940;126.892;2023-02-28T16:45:27;9.20;99.90
11639;DHT22;5875;35.940;126.892;2023-02-28T16:47:55;9.20;99.90
11639;DHT22;5875;35.940;126.892;2023-02-28T16:50:25;9.10;97.40
11639;DHT22;5875;35.940;126.892;2023-02-28T16:52:52;9.10;99.90
11639;DHT22;5875;35.940;126.892;2023-02-28T16:55:24;9.10;95.40
11639;DHT22;5875;35.940;126.892;2023-02-28T16:57:53;9.10;93.80
11639;DHT22;5875;35.940;126.892;2023-02-28T17:00:22;9.10;89.60
11639;DHT22;5875;35.940;126.892;2023-02-28T17:02:49;9.10;82.70
11639;DHT22;5875;35.940;126.892;2023-02-28T17:05:17;9.10;81.30
11639;DHT22;5875;35.940;126.892;2023-02-28T17:07:46;9.10;78.10
11639;DHT22;5875;35.940;126.892;2023-02-28T17:10:18;9.10;78.20
11639;DHT22;5875;35.940;126.892;2023-02-28T17:12:46;9.10;77.30
11639;DHT22;5875;35.940;126.892;2023-02-28T17:15:14;9.10;77.00
11639;DHT22;5875;35.940;126.892;2023-02-28T17:17:43;9.10;85.40
11639;DHT22;5875;35.940;126.892;2023-02-28T17:20:14;9.10;88.80
11639;DHT22;5875;35.940;126.892;2023-02-28T17:22:41;9.10;81.60
11639;DHT22;5875;35.940;126.892;2023-02-28T17:25:10;9.10;80.80
11639;DHT22;5875;35.940;126.892;2023-02-28T17:27:37;9.10;79.70
11639;DHT22;5875;35.940;126.892;2023-02-28T17:30:25;9.10;78.60
11639;DHT22;5875;35.940;126.892;2023-02-28T17:32:57;9.10;79.10
11639;DHT22;5875;35.940;126.892;2023-02-28T17:35:24;9.10;79.60
11639;DHT22;5875;35.940;126.892;2023-02-28T17:37:53;9.10;85.20
11639;DHT22;5875;35.940;126.892;2023-02-28T17:40:22;9.10;92.30
11639;DHT22;5875;35.940;126.892;2023-02-28T17:42:50;9.00;84.80
11639;DHT22;5875;35.940;126.892;2023-02-28T17:45:19;9.00;82.90
11639;DHT22;5875;35.940;126.892;2023-02-28T17:47:48;9.00;83.40
11639;DHT22;5875;35.940;126.892;2023-02-28T17:50:19;9.00;83.40
11639;DHT22;5875;35.940;126.892;2023-02-28T17:52:47;9.00;82.20
11639;DHT22;5875;35.940;126.892;2023-02-28T17:55:14;9.00;85.10
11639;DHT22;5875;35.940;126.892;2023-02-28T17:57:41;9.00;83.40
11639;DHT22;5875;35.940;126.892;2023-02-28T18:00:12;9.00;81.10
11639;DHT22;5875;35.940;126.892;2023-02-28T18:02:39;9.00;91.20
11639;DHT22;5875;35.940;126.892;2023-02-28T18:05:07;9.00;99.90
11639;DHT22;5875;35.940;126.892;2023-02-28T18:07:37;8.90;93.00
11639;DHT22;5875;35.940;126.892;2023-02-28T18:10:06;8.90;89.60
11639;DHT22;5875;35.940;126.892;2023-02-28T18:12:33;8.90;89.60
11639;DHT22;5875;35.940;126.892;2023-02-28T18:15:01;8.90;89.40
11639;DHT22;5875;35.940;126.892;2023-02-28T18:17:28;8.90;89.30
11639;DHT22;5875;35.940;126.892;2023-02-28T18:19:55;8.90;99.60
11639;DHT22;5875;35.940;126.892;2023-02-28T18:22:22;8.90;99.90
11639;DHT22;5875;35.940;126.892;2023-02-28T18:24:49;8.90;99.90
11639;DHT22;5875;35.940;126.892;2023-02-28T18:27:17;8.90;99.90
11639;DHT22;5875;35.940;126.892;2023-02-28T18:29:44;8.90;99.20
11639;DHT22;5875;35.940;126.892;2023-02-28T18:32:11;8.90;92.70
11639;DHT22;5875;35.940;126.892;2023-02-28T18:34:38;8.80;92.70
11639;DHT22;5875;35.940;126.892;2023-02-28T18:37:05;8.80;91.10
11639;DHT22;5875;35.940;126.892;2023-02-28T18:39:32;8.80;90.40
11639;DHT22;5875;35.940;126.892;2023-02-28T18:41:59;8.80;92.00
11639;DHT22;5875;35.940;126.892;2023-02-28T18:44:27;8.80;89.30
11639;DHT22;5875;35.940;126.892;2023-02-28T18:46:54;8.80;91.10
11639;DHT22;5875;35.940;126.892;2023-02-28T18:49:21;8.80;90.00
11639;DHT22;5875;35.940;126.892;2023-02-28T18:51:48;8.80;88.40
11639;DHT22;5875;35.940;126.892;2023-02-28T18:54:16;8.80;91.50
11639;DHT22;5875;35.940;126.892;2023-02-28T18:56:43;8.80;91.70
11639;DHT22;5875;35.940;126.892;2023-02-28T18:59:11;8.80;87.90
11639;DHT22;5875;35.940;126.892;2023-02-28T19:01:38;8.80;96.20
11639;DHT22;5875;35.940;126.892;2023-02-28T19:04:06;8.80;96.50
11639;DHT22;5875;35.940;126.892;2023-02-28T19:06:33;8.80;91.50
11639;DHT22;5875;35.940;126.892;2023-02-28T19:09:03;8.80;90.50
11639;DHT22;5875;35.940;126.892;2023-02-28T19:11:31;8.80;91.30
11639;DHT22;5875;35.940;126.892;2023-02-28T19:13:59;8.80;96.80
11639;DHT22;5875;35.940;126.892;2023-02-28T19:16:27;8.80;93.90
11639;DHT22;5875;35.940;126.892;2023-02-28T19:18:54;8.80;90.50
11639;DHT22;5875;35.940;126.892;2023-02-28T19:21:23;8.80;87.00
11639;DHT22;5875;35.940;126.892;2023-02-28T19:23:51;8.80;85.10
11639;DHT22;5875;35.940;126.892;2023-02-28T19:26:21;8.80;86.10
11639;DHT22;5875;35.940;126.892;2023-02-28T19:28:49;8.80;88.30
11639;DHT22;5875;35.940;126.892;2023-02-28T19:31:18;8.80;89.30
11639;DHT22;5875;35.940;126.892;2023-02-28T19:33:46;8.80;85.60
11639;DHT22;5875;35.940;126.892;2023-02-28T19:36:14;8.80;90.70
11639;DHT22;5875;35.940;126.892;2023-02-28T19:38:42;8.80;88.60
11639;DHT22;5875;35.940;126.892;2023-02-28T19:41:13;8.80;85.20
11639;DHT22;5875;35.940;126.892;2023-02-28T19:43:41;8.80;87.10
11639;DHT22;5875;35.940;126.892;2023-02-28T19:46:09;8.80;90.00
11639;DHT22;5875;35.940;126.892;2023-02-28T19:48:37;8.80;90.80
11639;DHT22;5875;35.940;126.892;2023-02-28T19:51:07;8.80;91.40
11639;DHT22;5875;35.940;126.892;2023-02-28T19:53:35;8.80;95.30
11639;DHT22;5875;35.940;126.892;2023-02-28T19:56:04;8.80;96.00
11639;DHT22;5875;35.940;126.892;2023-02-28T19:58:32;8.70;99.90
11639;DHT22;5875;35.940;126.892;2023-02-28T20:01:06;8.80;97.50
11639;DHT22;5875;35.940;126.892;2023-02-28T20:03:33;8.80;96.30
11639;DHT22;5875;35.940;126.892;2023-02-28T20:06:06;8.70;99.10
11639;DHT22;5875;35.940;126.892;2023-02-28T20:08:35;8.80;99.30
11639;DHT22;5875;35.940;126.892;2023-02-28T20:11:04;8.80;96.10
11639;DHT22;5875;35.940;126.892;2023-02-28T20:13:32;8.80;97.20
11639;DHT22;5875;35.940;126.892;2023-02-28T20:16:01;8.70;99.80
11639;DHT22;5875;35.940;126.892;2023-02-28T20:18:28;8.70;98.30
11639;DHT22;5875;35.940;126.892;2023-02-28T20:20:56;8.70;98.80
11639;DHT22;5875;35.940;126.892;2023-02-28T20:23:24;8.80;99.90
11639;DHT22;5875;35.940;126.892;2023-02-28T20:25:51;8.70;99.90
11639;DHT22;5875;35.940;126.892;2023-02-28T20:28:19;8.70;98.80
11639;DHT22;5875;35.940;126.892;2023-02-28T20:30:47;8.80;94.90
11639;DHT22;5875;35.940;126.892;2023-02-28T20:33:15;8.80;94.80
11639;DHT22;5875;35.940;126.892;2023-02-28T20:35:42;8.70;96.30
11639;DHT22;5875;35.940;126.892;2023-02-28T20:38:10;8.70;98.80
11639;DHT22;5875;35.940;126.892;2023-02-28T20:40:37;8.70;96.20
11639;DHT22;5875;35.940;126.892;2023-02-28T20:43:13;8.70;97.70
11639;DHT22;5875;35.940;126.892;2023-02-28T20:45:48;8.70;99.50
11639;DHT22;5875;35.940;126.892;2023-02-28T20:48:15;8.70;99.90
11639;DHT22;5875;35.940;126.892;2023-02-28T20:50:51;8.70;99.90
11639;DHT22;5875;35.940;126.892;2023-02-28T20:53:19;8.70;99.90
11639;DHT22;5875;35.940;126.892;2023-02-28T20:56:10;8.70;99.90
11639;DHT22;5875;35.940;126.892;2023-02-28T20:58:39;8.70;99.90
11639;DHT22;5875;35.940;126.892;2023-02-28T21:01:09;8.70;99.90
11639;DHT22;5875;35.940;126.892;2023-02-28T21:03:50;8.70;99.90
11639;DHT22;5875;35.940;126.892;2023-02-28T21:06:19;8.70;99.90
11639;DHT22;5875;35.940;126.892;2023-02-28T21:08:47;8.70;99.90
11639;DHT22;5875;35.940;126.892;2023-02-28T21:11:21;8.60;99.90
11639;DHT22;5875;35.940;126.892;2023-02-28T21:13:49;8.60;99.90
11639;DHT22;5875;35.940;126.892;2023-02-28T21:16:19;8.60;99.90
11639;DHT22;5875;35.940;126.892;2023-02-28T21:18:47;8.60;99.90
11639;DHT22;5875;35.940;126.892;2023-02-28T21:21:17;8.60;99.90
11639;DHT22;5875;35.940;126.892;2023-02-28T21:23:45;8.60;99.90
11639;DHT22;5875;35.940;126.892;2023-02-28T21:26:16;8.60;99.90
11639;DHT22;5875;35.940;126.892;2023-02-28T21:28:52;8.60;99.90
11639;DHT22;5875;35.940;126.892;2023-02-28T21:31:21;8.60;99.90
11639;DHT22;5875;35.940;126.892;2023-02-28T21:33:50;8.60;99.90
11639;DHT22;5875;35.940;126.892;2023-02-28T21:36:20;8.50;99.90
11639;DHT22;5875;35.940;126.892;2023-02-28T21:38:53;8.50;99.90
11639;DHT22;5875;35.940;126.892;2023-02-28T21:41:26;8.50;99.90
11639;DHT22;5875;35.940;126.892;2023-02-28T21:43:54;8.60;99.90
11639;DHT22;5875;35.940;126.892;2023-02-28T21:46:24;8.60;99.90
11639;DHT22;5875;35.940;126.892;2023-02-28T21:48:52;8.50;99.90
11639;DHT22;5875;35.940;126.892;2023-02-28T21:51:28;8.60;99.90
11639;DHT22;5875;35.940;126.892;2023-02-28T21:54:00;8.50;99.90
11639;DHT22;5875;35.940;126.892;2023-02-28T21:56:30;8.50;99.90
11639;DHT22;5875;35.940;126.892;2023-02-28T21:58:58;8.50;99.90
11639;DHT22;5875;35.940;126.892;2023-02-28T22:01:33;8.50;99.90
11639;DHT22;5875;35.940;126.892;2023-02-28T22:04:02;8.50;99.90
11639;DHT22;5875;35.940;126.892;2023-02-28T22:06:32;8.50;99.90
11639;DHT22;5875;35.940;126.892;2023-02-28T22:09:02;8.50;99.90
11639;DHT22;5875;35.940;126.892;2023-02-28T22:11:32;8.50;99.90